Time;durP1;ratioP1;P1;durP2;ratioP2;P2;SDS_P1;SDS_P2;PMS_P1;PMS_P2;Temp;Humidity;BMP_temperature;BMP_pressure;BME280_temperature;BME280_humidity;BME280_pressure;Samples;Min_cycle;Max_cycle;Signal;HPM_P1;HPM_P2
2023/01/24 00:00:49;;;;;;;18.08;11.30;;;2.20;99.90;;;;;;5098612;28;20051;-30
2023/01/24 00:03:15;;;;;;;15.38;10.55;;;2.20;99.90;;;;;;5116012;28;20051;-31
2023/01/24 00:05:47;;;;;;;15.68;10.70;;;2.20;99.90;;;;;;5097668;28;20043;-30
2023/01/24 00:08:14;;;;;;;16.98;11.30;;;2.70;99.90;;;;;;5115788;28;20044;-31
2023/01/24 00:10:41;;;;;;;16.25;11.70;;;2.20;99.90;;;;;;5115724;28;20054;-30
2023/01/24 00:13:09;;;;;;;19.75;13.15;;;2.20;99.90;;;;;;5115767;28;20040;-31
2023/01/24 00:15:35;;;;;;;16.50;11.77;;;2.20;99.90;;;;;;5097804;28;20079;-30
2023/01/24 00:18:01;;;;;;;18.58;12.05;;;2.20;39.90;;;;;;5115996;28;20132;-30
2023/01/24 00:20:27;;;;;;;16.60;12.30;;;2.20;99.90;;;;;;5115933;28;20054;-31
2023/01/24 00:22:52;;;;;;;18.67;12.82;;;2.20;99.90;;;;;;5116219;28;20047;-31
2023/01/24 00:25:18;;;;;;;19.50;13.57;;;2.20;99.90;;;;;;5097827;28;20048;-30
2023/01/24 00:27:44;;;;;;;18.23;12.50;;;2.20;99.90;;;;;;5097461;28;20050;-30
2023/01/24 00:30:10;;;;;;;17.80;12.82;;;2.20;99.90;;;;;;5115364;28;20040;-30
2023/01/24 00:32:36;;;;;;;20.10;12.68;;;2.20;99.90;;;;;;5115981;28;20441;-30
2023/01/24 00:35:02;;;;;;;20.40;12.77;;;2.20;99.90;;;;;;5097204;28;20082;-31
2023/01/24 00:37:28;;;;;;;17.98;12.52;;;2.20;99.90;;;;;;5115315;28;20046;-31
2023/01/24 00:39:54;;;;;;;17.23;12.25;;;2.20;99.90;;;;;;5115243;28;20047;-31
2023/01/24 00:42:19;;;;;;;18.23;12.30;;;2.20;99.90;;;;;;5096950;28;20050;-31
2023/01/24 00:44:46;;;;;;;17.88;12.45;;;2.20;99.90;;;;;;5098028;28;20048;-31
2023/01/24 00:47:11;;;;;;;19.23;13.73;;;2.20;99.90;;;;;;5115396;28;20120;-31
2023/01/24 00:49:37;;;;;;;18.95;13.82;;;2.20;99.90;;;;;;5096953;28;20473;-31
2023/01/24 00:52:03;;;;;;;25.25;15.10;;;2.20;99.90;;;;;;5115022;28;20105;-31
2023/01/24 00:54:28;;;;;;;21.80;15.57;;;2.20;99.90;;;;;;5097296;28;20066;-30
2023/01/24 00:56:54;;;;;;;23.45;14.40;;;2.20;99.90;;;;;;5115023;28;20402;-30
2023/01/24 00:59:20;;;;;;;20.27;14.23;;;2.50;99.90;;;;;;5115211;28;20088;-31
2023/01/24 01:01:46;;;;;;;22.75;15.05;;;2.20;99.90;;;;;;5114844;28;20485;-30
2023/01/24 01:04:12;;;;;;;22.55;15.27;;;2.20;1.00;;;;;;5114017;28;20044;-31
2023/01/24 01:06:37;;;;;;;20.58;14.75;;;2.30;1.00;;;;;;5114786;28;20109;-30
2023/01/24 01:09:03;;;;;;;19.77;14.27;;;2.20;1.00;;;;;;5114637;28;20044;-31
2023/01/24 01:11:29;;;;;;;23.20;15.07;;;2.20;1.00;;;;;;5096551;28;20104;-32
2023/01/24 01:13:55;;;;;;;22.13;15.43;;;2.20;1.00;;;;;;5096928;28;20540;-30
2023/01/24 01:16:22;;;;;;;23.98;15.43;;;2.50;1.00;;;;;;5114582;28;20083;-31
2023/01/24 01:18:50;;;;;;;23.52;16.17;;;2.20;1.00;;;;;;5080614;28;20047;-31
2023/01/24 01:21:18;;;;;;;23.63;16.23;;;2.20;1.00;;;;;;5096535;28;20493;-30
2023/01/24 01:23:44;;;;;;;23.98;15.90;;;2.20;1.00;;;;;;5096557;28;20051;-31
2023/01/24 01:26:16;;;;;;;27.95;16.23;;;2.20;1.00;;;;;;5114424;28;20489;-31
2023/01/24 01:28:42;;;;;;;25.15;17.75;;;2.20;1.00;;;;;;5114748;28;20044;-30
2023/01/24 01:31:08;;;;;;;28.05;17.73;;;2.20;1.00;;;;;;5114241;28;20049;-31
2023/01/24 01:33:34;;;;;;;22.77;16.15;;;2.10;1.00;;;;;;5096685;28;20048;-30
2023/01/24 01:36:00;;;;;;;28.70;18.83;;;2.20;1.00;;;;;;5113965;28;20051;-31
2023/01/24 01:38:27;;;;;;;28.90;18.65;;;2.20;1.00;;;;;;5114890;28;20055;-30
2023/01/24 01:40:54;;;;;;;28.05;18.10;;;2.20;33.20;;;;;;5115064;28;20132;-31
2023/01/24 01:43:22;;;;;;;26.45;17.58;;;2.20;1.00;;;;;;5114742;28;20385;-31
2023/01/24 01:45:50;;;;;;;34.63;20.40;;;2.70;11.50;;;;;;5114202;28;20040;-31
2023/01/24 01:48:18;;;;;;;28.15;18.33;;;2.20;1.00;;;;;;5114703;28;20405;-30
2023/01/24 01:50:50;;;;;;;28.42;19.15;;;2.20;19.30;;;;;;5114056;28;20101;-30
2023/01/24 01:53:17;;;;;;;28.67;19.42;;;2.30;20.50;;;;;;5114161;28;20130;-30
2023/01/24 01:55:48;;;;;;;31.65;19.23;;;2.20;8.20;;;;;;5114539;28;20101;-30
2023/01/24 01:58:15;;;;;;;31.90;20.20;;;2.20;1.00;;;;;;5114108;28;20044;-30
2023/01/24 02:00:49;;;;;;;29.88;19.95;;;2.20;23.60;;;;;;5096941;28;20047;-30
2023/01/24 02:06:02;;;;;;;30.50;19.98;;;2.20;52.90;;;;;;5114856;28;20077;-30
2023/01/24 02:08:29;;;;;;;28.13;19.00;;;2.20;43.30;;;;;;5079206;28;20051;-31
2023/01/24 02:13:43;;;;;;;28.52;18.50;;;2.20;36.50;;;;;;5113988;28;20087;-30
2023/01/24 02:16:11;;;;;;;31.58;20.17;;;2.20;1.00;;;;;;5118403;28;20051;-31
2023/01/24 02:18:39;;;;;;;30.60;19.08;;;2.20;1.00;;;;;;5100042;28;20078;-31
2023/01/24 02:21:10;;;;;;;31.42;19.33;;;2.20;21.30;;;;;;5118018;28;20127;-31
2023/01/24 02:23:39;;;;;;;30.85;19.52;;;2.20;36.00;;;;;;5118272;28;20051;-30
2023/01/24 02:26:14;;;;;;;29.38;20.80;;;2.20;57.50;;;;;;5118664;28;20086;-31
2023/01/24 02:28:50;;;;;;;30.50;19.27;;;2.20;73.00;;;;;;5117833;28;20059;-31
2023/01/24 02:31:15;;;;;;;43.53;20.10;;;2.20;78.50;;;;;;5099574;28;20039;-31
2023/01/24 02:33:41;;;;;;;29.35;18.27;;;2.20;83.30;;;;;;5117701;28;20100;-30
2023/01/24 02:36:21;;;;;;;29.45;19.05;;;2.20;1.00;;;;;;5118223;28;20122;-30
2023/01/24 02:39:10;;;;;;;35.78;21.13;;;2.20;42.30;;;;;;5118257;28;20051;-30
2023/01/24 02:41:44;;;;;;;30.70;19.88;;;2.40;69.30;;;;;;5100471;28;20054;-31
2023/01/24 02:44:14;;;;;;;30.55;19.77;;;2.50;22.70;;;;;;5100476;28;20108;-30
2023/01/24 02:46:43;;;;;;;30.80;20.58;;;2.20;67.50;;;;;;5117460;28;20047;-31
2023/01/24 02:49:10;;;;;;;32.90;20.83;;;2.20;72.90;;;;;;5117384;28;20086;-31
2023/01/24 02:54:20;;;;;;;36.95;22.00;;;2.40;83.80;;;;;;5098876;28;20063;-32
2023/01/24 02:59:30;;;;;;;35.20;22.52;;;2.20;92.90;;;;;;5117257;28;20044;-31
2023/01/24 03:01:55;;;;;;;33.53;20.65;;;2.20;99.90;;;;;;5099127;28;20054;-31
2023/01/24 03:04:21;;;;;;;32.45;21.42;;;2.20;99.90;;;;;;5099027;28;20043;-30
2023/01/24 03:06:48;;;;;;;33.95;21.27;;;2.20;99.90;;;;;;5099011;28;20131;-31
2023/01/24 03:09:33;;;;;;;32.38;20.85;;;2.20;99.90;;;;;;5098729;28;20047;-31
2023/01/24 03:36:43;;;;;;;31.95;19.23;;;2.50;99.90;;;;;;5116583;28;20054;-31
2023/01/24 03:41:55;;;;;;;27.13;18.17;;;2.20;95.20;;;;;;5098758;28;20059;-31
2023/01/24 03:44:20;;;;;;;29.45;17.83;;;2.20;99.90;;;;;;5116368;28;20439;-31
2023/01/24 03:46:47;;;;;;;37.92;18.83;;;2.20;99.90;;;;;;5116319;28;20094;-30
2023/01/24 03:49:13;;;;;;;27.65;18.10;;;2.20;99.90;;;;;;5117018;28;20055;-31
2023/01/24 03:54:23;;;;;;;22.55;15.48;;;2.20;99.90;;;;;;5116200;28;20058;-31
2023/01/24 03:56:49;;;;;;;22.58;15.55;;;2.30;99.90;;;;;;5116799;28;20482;-32
2023/01/24 03:59:14;;;;;;;19.38;14.35;;;2.20;99.90;;;;;;5116728;28;20096;-31
2023/01/24 04:01:40;;;;;;;22.35;15.15;;;2.30;84.70;;;;;;5116389;28;20130;-30
2023/01/24 04:04:06;;;;;;;21.75;14.70;;;2.20;76.00;;;;;;5097816;28;20457;-31
2023/01/24 04:06:31;;;;;;;23.80;15.20;;;2.30;99.90;;;;;;5115959;28;20125;-30
2023/01/24 04:08:57;;;;;;;18.83;13.02;;;2.40;78.40;;;;;;5115883;28;20040;-31
2023/01/24 04:11:23;;;;;;;19.50;13.35;;;2.40;86.40;;;;;;5116336;28;20035;-31
2023/01/24 04:13:48;;;;;;;18.83;13.45;;;2.30;1.00;;;;;;5115811;28;20055;-31
2023/01/24 04:16:14;;;;;;;17.48;12.88;;;2.40;1.00;;;;;;5115404;28;20185;-30
2023/01/24 04:18:40;;;;;;;22.02;13.77;;;2.70;1.00;;;;;;5097564;28;20039;-31
2023/01/24 04:21:06;;;;;;;21.13;14.30;;;2.40;99.90;;;;;;5116227;28;20044;-31
2023/01/24 04:23:32;;;;;;;19.90;13.52;;;2.40;1.00;;;;;;5116468;28;20055;-31
2023/01/24 04:25:59;;;;;;;16.45;11.95;;;2.40;99.90;;;;;;5115520;28;20470;-31
2023/01/24 04:28:25;;;;;;;19.70;13.80;;;2.40;99.90;;;;;;5115535;28;20048;-31
2023/01/24 04:30:58;;;;;;;20.90;15.20;;;2.70;99.90;;;;;;5115849;28;20047;-32
2023/01/24 04:33:24;;;;;;;23.92;15.23;;;2.40;99.90;;;;;;5115142;28;20043;-30
2023/01/24 04:35:50;;;;;;;22.15;15.07;;;2.40;1.00;;;;;;5115370;28;20050;-31
2023/01/24 04:38:15;;;;;;;22.67;16.08;;;2.40;1.00;;;;;;5115187;28;20039;-31
2023/01/24 04:40:41;;;;;;;21.15;14.93;;;2.40;1.00;;;;;;5115765;28;20040;-31
2023/01/24 04:43:07;;;;;;;22.17;16.38;;;2.40;1.00;;;;;;5115799;28;20066;-31
2023/01/24 04:45:33;;;;;;;25.10;17.10;;;2.40;1.00;;;;;;5097789;28;20043;-31
2023/01/24 04:47:58;;;;;;;23.73;16.88;;;2.40;1.00;;;;;;5115227;28;20050;-31
2023/01/24 04:50:24;;;;;;;28.02;18.27;;;2.40;1.00;;;;;;5097225;28;20493;-31
2023/01/24 04:52:50;;;;;;;29.02;18.77;;;2.40;1.00;;;;;;5096861;28;20039;-30
2023/01/24 04:55:16;;;;;;;26.90;18.80;;;2.40;1.00;;;;;;5096630;28;20051;-31
2023/01/24 04:57:42;;;;;;;26.23;18.00;;;2.30;1.00;;;;;;5115226;28;20104;-31
2023/01/24 05:00:09;;;;;;;29.23;18.40;;;2.30;1.00;;;;;;5115505;28;20083;-30
2023/01/24 05:02:37;;;;;;;26.95;17.90;;;2.30;1.00;;;;;;5114849;28;20035;-31
2023/01/24 05:05:04;;;;;;;29.02;18.67;;;2.30;1.00;;;;;;5114808;28;20043;-30
2023/01/24 05:07:30;;;;;;;24.73;17.77;;;2.30;1.00;;;;;;5096575;28;20055;-31
2023/01/24 05:09:55;;;;;;;21.70;15.65;;;2.30;1.00;;;;;;5115032;28;20040;-31
2023/01/24 05:12:21;;;;;;;20.60;14.48;;;2.30;1.00;;;;;;5096595;28;20051;-31
2023/01/24 05:14:47;;;;;;;18.77;13.70;;;2.30;1.00;;;;;;5114649;28;20052;-31
2023/01/24 05:17:12;;;;;;;20.58;14.73;;;2.30;1.00;;;;;;5114620;28;20366;-31
2023/01/24 05:19:38;;;;;;;18.83;14.68;;;2.40;99.90;;;;;;5114868;28;20040;-30
2023/01/24 05:22:04;;;;;;;18.25;13.30;;;2.30;77.00;;;;;;5114225;28;20047;-30
2023/01/24 05:24:29;;;;;;;20.05;14.55;;;2.40;2.10;;;;;;5096578;28;20039;-31
2023/01/24 05:26:55;;;;;;;19.10;13.73;;;2.30;99.90;;;;;;5096493;28;20050;-30
2023/01/24 05:29:21;;;;;;;18.88;14.57;;;2.30;1.00;;;;;;5114187;28;20046;-30
2023/01/24 05:31:46;;;;;;;19.08;14.30;;;2.30;1.00;;;;;;5114380;28;20550;-31
2023/01/24 05:34:12;;;;;;;19.70;14.63;;;2.40;99.90;;;;;;5114628;28;20051;-31
2023/01/24 05:36:38;;;;;;;19.52;14.02;;;2.40;1.00;;;;;;5096668;28;20490;-30
2023/01/24 05:39:03;;;;;;;22.63;15.75;;;2.40;1.00;;;;;;5114071;28;20050;-30
2023/01/24 05:41:29;;;;;;;21.90;15.18;;;2.30;1.00;;;;;;5079143;28;20117;-31
2023/01/24 05:43:55;;;;;;;20.88;15.43;;;2.30;49.30;;;;;;5114185;28;20040;-30
2023/01/24 05:46:22;;;;;;;23.10;16.40;;;2.30;36.90;;;;;;5114687;28;20503;-31
2023/01/24 05:48:48;;;;;;;21.85;15.63;;;2.30;99.90;;;;;;5113873;28;20047;-31
2023/01/24 05:51:19;;;;;;;21.85;15.32;;;2.30;99.90;;;;;;5113712;28;20035;-30
2023/01/24 05:53:46;;;;;;;23.73;16.40;;;2.40;99.90;;;;;;5096057;28;20403;-30
2023/01/24 05:56:14;;;;;;;23.08;16.02;;;2.30;99.90;;;;;;5092908;28;20098;-30
2023/01/24 05:58:42;;;;;;;21.85;16.88;;;2.30;99.90;;;;;;5092344;28;20052;-31
2023/01/24 06:01:13;;;;;;;23.63;15.80;;;2.30;99.90;;;;;;5093544;28;20047;-31
2023/01/24 06:03:43;;;;;;;24.08;17.08;;;2.30;99.90;;;;;;5094165;28;20418;-31
2023/01/24 06:06:10;;;;;;;25.00;16.75;;;2.70;99.90;;;;;;5094116;28;20055;-30
2023/01/24 06:08:36;;;;;;;24.75;17.02;;;2.30;99.90;;;;;;5093479;28;20048;-32
2023/01/24 06:11:20;;;;;;;20.83;15.63;;;2.30;96.40;;;;;;5093721;28;20051;-30
2023/01/24 06:13:47;;;;;;;25.90;16.98;;;2.20;1.00;;;;;;5093576;28;20050;-32
2023/01/24 06:16:18;;;;;;;20.92;15.38;;;2.20;99.90;;;;;;5094213;28;20050;-31
2023/01/24 06:18:44;;;;;;;25.02;16.30;;;2.30;99.90;;;;;;5093195;28;20048;-31
2023/01/24 06:21:24;;;;;;;21.95;15.70;;;2.30;99.90;;;;;;5093512;28;20036;-31
2023/01/24 06:23:50;;;;;;;24.00;16.58;;;2.30;99.90;;;;;;5092576;28;20100;-30
2023/01/24 06:26:16;;;;;;;25.60;17.52;;;2.30;1.00;;;;;;5092329;28;20051;-30
2023/01/24 06:28:42;;;;;;;26.75;17.67;;;2.30;1.00;;;;;;5091926;28;20402;-30
2023/01/24 06:31:27;;;;;;;26.08;17.40;;;2.20;99.90;;;;;;5093277;28;20051;-31
2023/01/24 06:34:08;;;;;;;22.75;16.73;;;2.20;99.90;;;;;;5093723;28;20405;-30
2023/01/24 06:37:04;;;;;;;24.95;17.52;;;2.20;1.00;;;;;;5093903;28;20052;-31
2023/01/24 06:39:30;;;;;;;26.92;18.55;;;2.20;62.20;;;;;;5092709;28;20051;-31
2023/01/24 06:41:56;;;;;;;26.42;17.52;;;2.20;1.00;;;;;;5075543;28;20486;-30
2023/01/24 06:44:23;;;;;;;25.85;18.00;;;2.20;1.00;;;;;;5092206;28;20095;-30
2023/01/24 06:46:48;;;;;;;26.52;18.05;;;2.20;14.10;;;;;;5092908;28;20044;-31
2023/01/24 06:49:14;;;;;;;25.38;18.08;;;2.20;1.00;;;;;;5093535;28;20093;-30
2023/01/24 06:51:40;;;;;;;27.23;17.13;;;2.20;31.70;;;;;;5091940;28;20470;-31
2023/01/24 06:54:05;;;;;;;24.65;17.95;;;2.20;95.60;;;;;;5091959;28;20048;-31
2023/01/24 06:56:32;;;;;;;24.42;17.23;;;2.20;99.90;;;;;;5111155;28;20138;-30
2023/01/24 06:58:58;;;;;;;27.23;18.02;;;2.20;99.90;;;;;;5114314;28;20043;-30
2023/01/24 07:01:24;;;;;;;28.17;17.92;;;2.20;99.90;;;;;;5114097;28;20047;-30
2023/01/24 07:03:49;;;;;;;28.70;19.60;;;2.20;99.90;;;;;;5117486;28;20102;-30
2023/01/24 07:06:15;;;;;;;27.90;17.90;;;2.10;99.90;;;;;;5117189;28;20047;-31
2023/01/24 07:08:41;;;;;;;25.83;18.30;;;2.10;99.90;;;;;;5117108;28;20119;-30
2023/01/24 07:11:07;;;;;;;26.75;17.98;;;2.10;99.90;;;;;;5116995;28;20039;-30
2023/01/24 07:13:32;;;;;;;27.85;18.40;;;2.10;99.90;;;;;;5117626;28;20101;-30
2023/01/24 07:16:02;;;;;;;28.88;19.30;;;2.10;18.10;;;;;;5116999;28;20110;-31
2023/01/24 07:18:27;;;;;;;27.75;19.63;;;2.10;20.90;;;;;;5116958;28;20043;-30
2023/01/24 07:20:54;;;;;;;30.77;20.30;;;2.10;1.00;;;;;;5098948;28;20482;-30
2023/01/24 07:23:27;;;;;;;28.75;18.88;;;2.10;1.00;;;;;;5116811;28;20048;-30
2023/01/24 07:25:54;;;;;;;32.55;20.55;;;2.10;1.00;;;;;;5117075;28;20486;-31
2023/01/24 07:28:20;;;;;;;30.92;19.95;;;2.10;80.60;;;;;;5116730;28;20039;-30
2023/01/24 07:30:48;;;;;;;31.98;20.15;;;2.10;99.90;;;;;;5116512;28;20503;-30
2023/01/24 07:33:15;;;;;;;30.63;19.92;;;2.10;99.90;;;;;;5116630;28;20040;-31
2023/01/24 07:35:41;;;;;;;29.33;20.52;;;2.10;99.90;;;;;;5116799;28;20043;-30
2023/01/24 07:38:07;;;;;;;31.27;19.75;;;2.40;99.90;;;;;;5117249;28;20082;-31
2023/01/24 07:40:32;;;;;;;29.40;19.13;;;2.10;99.90;;;;;;5098592;28;20083;-31
2023/01/24 07:43:03;;;;;;;31.92;21.02;;;2.10;99.90;;;;;;5098203;28;20490;-30
2023/01/24 07:45:29;;;;;;;31.42;20.77;;;2.10;99.90;;;;;;5116377;28;20044;-31
2023/01/24 07:47:58;;;;;;;30.35;20.33;;;2.10;99.90;;;;;;5116395;28;20098;-30
2023/01/24 07:50:25;;;;;;;28.30;19.42;;;2.10;99.90;;;;;;5116253;28;20044;-30
2023/01/24 07:52:52;;;;;;;28.55;20.73;;;2.10;99.90;;;;;;5116282;28;20050;-32
2023/01/24 07:55:19;;;;;;;30.38;20.38;;;2.10;99.90;;;;;;5116154;28;20059;-30
2023/01/24 07:57:45;;;;;;;28.50;19.60;;;2.00;99.90;;;;;;5098240;28;20101;-31
2023/01/24 08:00:11;;;;;;;30.25;20.00;;;2.10;99.90;;;;;;5116108;28;20431;-30
2023/01/24 08:02:36;;;;;;;32.13;21.35;;;2.10;99.90;;;;;;5116087;28;20043;-31
2023/01/24 08:05:02;;;;;;;33.13;21.80;;;2.10;99.90;;;;;;5115996;28;20047;-31
2023/01/24 08:07:28;;;;;;;29.58;20.20;;;2.10;99.90;;;;;;5116000;28;20039;-31
2023/01/24 08:09:54;;;;;;;28.50;18.67;;;2.10;99.90;;;;;;5097638;28;20043;-31
2023/01/24 08:12:20;;;;;;;25.83;17.70;;;2.10;99.90;;;;;;5080677;28;20050;-30
2023/01/24 08:14:46;;;;;;;27.05;17.95;;;2.10;1.00;;;;;;5097680;28;20043;-30
2023/01/24 08:17:12;;;;;;;23.67;16.67;;;2.10;1.00;;;;;;5098084;28;20043;-30
2023/01/24 08:19:39;;;;;;;25.05;17.05;;;2.10;1.00;;;;;;5097455;28;20406;-30
2023/01/24 08:22:05;;;;;;;25.90;16.73;;;2.10;1.00;;;;;;5116259;28;20048;-30
2023/01/24 08:24:31;;;;;;;24.92;17.25;;;2.20;1.00;;;;;;5115676;28;20053;-31
2023/01/24 08:26:59;;;;;;;23.48;17.10;;;2.10;1.00;;;;;;5097723;28;20055;-31
2023/01/24 08:29:24;;;;;;;22.58;15.52;;;2.20;1.00;;;;;;5116002;28;20552;-30
2023/01/24 08:31:50;;;;;;;23.10;15.60;;;2.10;1.00;;;;;;5115510;28;20130;-31
2023/01/24 08:34:16;;;;;;;22.50;15.80;;;2.10;1.00;;;;;;5097630;28;20100;-32
2023/01/24 08:36:42;;;;;;;21.42;15.38;;;2.20;99.60;;;;;;5097262;28;20123;-31
2023/01/24 08:39:07;;;;;;;23.15;15.90;;;2.20;99.90;;;;;;5115346;28;20040;-31
2023/01/24 08:41:33;;;;;;;23.58;15.73;;;2.20;71.70;;;;;;5097162;28;20046;-31
2023/01/24 08:43:59;;;;;;;21.73;15.15;;;2.20;99.90;;;;;;5080405;28;20451;-32
2023/01/24 08:46:26;;;;;;;23.42;15.15;;;2.30;30.50;;;;;;5115501;28;20050;-31
2023/01/24 08:48:51;;;;;;;22.00;14.82;;;2.20;99.90;;;;;;5097203;28;20054;-30
2023/01/24 08:51:17;;;;;;;23.95;14.15;;;2.20;99.90;;;;;;5115061;28;20039;-30
2023/01/24 08:53:43;;;;;;;23.67;14.60;;;2.20;99.90;;;;;;5079929;28;20543;-31
2023/01/24 08:56:08;;;;;;;21.42;14.85;;;2.30;99.90;;;;;;5096847;28;20055;-31
2023/01/24 08:58:34;;;;;;;21.05;14.13;;;2.30;99.90;;;;;;5114987;28;20488;-32
2023/01/24 09:01:05;;;;;;;22.95;13.93;;;2.30;99.90;;;;;;5114888;28;20035;-31
2023/01/24 09:03:30;;;;;;;19.60;13.18;;;2.30;1.00;;;;;;5096863;28;20130;-30
2023/01/24 09:05:57;;;;;;;18.20;12.98;;;2.30;20.10;;;;;;5096733;28;20156;-31
2023/01/24 09:08:23;;;;;;;18.92;13.43;;;2.30;1.00;;;;;;5114781;28;20047;-30
2023/01/24 09:10:49;;;;;;;19.80;13.38;;;2.30;1.00;;;;;;5096635;28;20520;-31
2023/01/24 09:13:15;;;;;;;18.27;13.40;;;2.40;1.00;;;;;;5097616;28;20043;-30
2023/01/24 09:15:41;;;;;;;23.30;14.02;;;2.30;1.00;;;;;;5114689;28;20044;-31
2023/01/24 09:18:06;;;;;;;18.58;12.85;;;2.40;1.00;;;;;;5114622;28;20047;-31
2023/01/24 09:20:32;;;;;;;17.13;11.95;;;2.40;99.90;;;;;;5097483;28;20101;-30
2023/01/24 09:22:58;;;;;;;16.15;11.95;;;2.40;99.90;;;;;;5114528;28;20046;-31
2023/01/24 09:25:24;;;;;;;18.35;12.48;;;2.40;1.00;;;;;;5114380;28;20104;-30
2023/01/24 09:27:54;;;;;;;17.35;12.50;;;2.50;1.00;;;;;;5114460;28;20043;-31
2023/01/24 09:30:21;;;;;;;16.02;11.48;;;2.50;1.00;;;;;;5114297;28;20044;-30
2023/01/24 09:32:48;;;;;;;17.60;12.00;;;2.50;99.90;;;;;;5096232;28;20054;-30
2023/01/24 09:35:14;;;;;;;19.52;12.52;;;2.70;1.00;;;;;;5096979;28;20504;-31
2023/01/24 09:37:42;;;;;;;16.55;12.00;;;2.50;99.90;;;;;;5096385;28;20485;-31
2023/01/24 09:40:43;;;;;;;18.13;11.25;;;2.80;99.90;;;;;;5114276;28;20039;-31
2023/01/24 09:43:36;;;;;;;18.30;11.75;;;2.50;1.00;;;;;;5082618;28;20151;-31
2023/01/24 09:46:20;;;;;;;16.65;11.43;;;2.60;99.90;;;;;;5097015;28;20051;-30
2023/01/24 09:48:57;;;;;;;17.10;11.80;;;2.60;99.90;;;;;;5114209;28;20051;-30
2023/01/24 09:51:27;;;;;;;15.77;10.70;;;2.60;99.90;;;;;;5114153;28;20090;-32
2023/01/24 09:53:57;;;;;;;16.38;11.15;;;2.60;99.90;;;;;;5095944;28;20054;-31
2023/01/24 09:56:35;;;;;;;20.13;10.80;;;2.60;1.00;;;;;;5113612;28;20502;-30
2023/01/24 09:59:35;;;;;;;17.55;11.05;;;2.70;99.90;;;;;;5096771;28;20052;-30
2023/01/24 10:02:02;;;;;;;16.83;10.88;;;2.60;1.00;;;;;;5114122;28;20092;-30
2023/01/24 10:04:35;;;;;;;15.80;11.73;;;2.70;1.00;;;;;;5114589;28;20048;-31
2023/01/24 10:07:33;;;;;;;14.50;10.18;;;2.60;99.90;;;;;;5114020;28;20134;-30
2023/01/24 10:10:15;;;;;;;14.23;10.57;;;2.70;99.90;;;;;;5079611;28;20505;-30
2023/01/24 10:12:40;;;;;;;18.98;11.77;;;2.70;99.90;;;;;;5114797;28;20044;-31
2023/01/24 10:15:36;;;;;;;16.17;11.50;;;2.70;99.90;;;;;;5113912;28;20553;-31
2023/01/24 10:18:29;;;;;;;15.95;10.55;;;2.70;99.90;;;;;;5114495;28;20047;-30
2023/01/24 10:21:04;;;;;;;13.68;10.30;;;2.70;1.00;;;;;;5113930;28;20144;-31
2023/01/24 10:23:36;;;;;;;15.52;10.48;;;2.80;99.90;;;;;;5113846;28;20055;-30
2023/01/24 10:26:18;;;;;;;20.52;11.98;;;2.80;99.90;;;;;;5113961;28;20059;-32
2023/01/24 10:28:49;;;;;;;15.60;10.93;;;2.80;99.90;;;;;;5096816;28;20090;-30
2023/01/24 10:31:38;;;;;;;15.40;10.77;;;2.80;99.90;;;;;;5113718;28;20040;-31
2023/01/24 10:34:12;;;;;;;15.18;10.77;;;2.80;99.90;;;;;;5113524;28;20481;-31
2023/01/24 10:36:54;;;;;;;15.73;11.18;;;2.90;99.90;;;;;;5116961;28;20043;-31
2023/01/24 10:39:20;;;;;;;15.73;11.25;;;2.90;1.00;;;;;;5099794;28;20535;-30
2023/01/24 10:41:45;;;;;;;16.65;11.60;;;2.90;99.90;;;;;;5117679;28;20047;-31
2023/01/24 10:44:22;;;;;;;16.40;10.98;;;3.00;99.90;;;;;;5117275;28;20062;-31
2023/01/24 10:47:13;;;;;;;19.73;12.82;;;2.90;34.50;;;;;;5100477;28;20062;-31
2023/01/24 10:49:41;;;;;;;17.52;11.70;;;2.90;69.40;;;;;;5117490;28;20077;-31
2023/01/24 10:52:16;;;;;;;14.85;10.90;;;2.90;17.50;;;;;;5118019;28;20046;-30
2023/01/24 10:54:51;;;;;;;14.65;10.30;;;2.90;99.90;;;;;;5117976;28;20135;-31
2023/01/24 10:57:32;;;;;;;17.08;11.00;;;2.90;40.70;;;;;;5117478;28;20504;-31
2023/01/24 11:00:16;;;;;;;16.88;10.23;;;2.90;1.00;;;;;;5100202;28;20165;-31
2023/01/24 11:02:49;;;;;;;15.75;10.93;;;2.90;1.00;;;;;;5099906;28;20192;-30
2023/01/24 11:05:16;;;;;;;14.88;10.20;;;2.90;99.90;;;;;;5117255;28;20513;-30
2023/01/24 11:07:47;;;;;;;14.73;9.48;;;3.00;1.00;;;;;;5117165;28;20051;-31
2023/01/24 11:10:42;;;;;;;15.70;10.45;;;2.90;1.00;;;;;;5117164;28;20038;-31
2023/01/24 11:13:39;;;;;;;15.00;10.27;;;2.90;93.90;;;;;;5117081;28;20126;-31
2023/01/24 11:16:17;;;;;;;16.58;10.43;;;2.90;1.00;;;;;;5117821;28;20122;-31
2023/01/24 11:18:49;;;;;;;14.23;10.40;;;3.00;99.90;;;;;;5117005;28;20051;-31
2023/01/24 11:21:18;;;;;;;15.63;10.60;;;3.00;1.00;;;;;;5116910;28;20119;-32
2023/01/24 11:23:44;;;;;;;14.38;10.15;;;3.00;60.70;;;;;;5116867;28;20143;-31
2023/01/24 11:26:28;;;;;;;15.43;10.75;;;3.00;1.00;;;;;;5117109;28;20039;-30
2023/01/24 11:29:16;;;;;;;14.32;10.02;;;3.00;1.00;;;;;;5098988;28;20043;-30
2023/01/24 11:31:51;;;;;;;13.77;10.30;;;3.00;1.00;;;;;;5098568;28;20043;-30
2023/01/24 11:34:36;;;;;;;14.57;10.45;;;3.00;99.90;;;;;;5116381;28;20082;-31
2023/01/24 11:37:33;;;;;;;15.63;11.15;;;3.00;99.90;;;;;;5099490;28;20071;-31
2023/01/24 11:40:26;;;;;;;16.92;11.63;;;2.90;99.90;;;;;;5082019;28;20493;-30
2023/01/24 11:43:17;;;;;;;16.05;11.00;;;2.90;99.90;;;;;;5116506;28;20039;-30
2023/01/24 11:46:11;;;;;;;15.48;11.38;;;2.90;99.90;;;;;;5116370;28;20040;-30
2023/01/24 11:48:56;;;;;;;17.40;10.93;;;2.90;99.90;;;;;;5099445;28;20044;-31
2023/01/24 11:51:31;;;;;;;17.85;10.98;;;3.00;99.90;;;;;;5116263;28;20040;-30
2023/01/24 11:54:28;;;;;;;16.38;10.85;;;3.00;99.90;;;;;;5098934;28;20100;-31
2023/01/24 11:57:03;;;;;;;16.52;11.20;;;3.00;99.90;;;;;;5116216;28;20134;-31
2023/01/24 12:00:00;;;;;;;15.80;10.85;;;3.00;1.00;;;;;;5116773;28;20116;-31
2023/01/24 12:02:39;;;;;;;15.35;10.85;;;3.10;1.00;;;;;;5117020;28;20043;-32
2023/01/24 12:05:18;;;;;;;16.25;11.63;;;3.10;99.90;;;;;;5116130;28;20086;-31
2023/01/24 12:08:01;;;;;;;15.00;10.48;;;3.10;1.00;;;;;;5116612;28;20393;-31
2023/01/24 12:10:39;;;;;;;15.48;10.75;;;3.10;1.00;;;;;;5098060;28;20082;-30
2023/01/24 12:13:36;;;;;;;15.57;10.90;;;3.10;1.00;;;;;;5081110;28;20129;-33
2023/01/24 12:16:27;;;;;;;16.85;10.23;;;3.20;89.90;;;;;;5112381;28;20051;-32
2023/01/24 12:19:01;;;;;;;16.77;10.73;;;3.20;1.00;;;;;;5116073;28;20086;-30
2023/01/24 12:21:27;;;;;;;17.20;11.18;;;3.20;1.00;;;;;;5115795;28;20039;-31
2023/01/24 12:23:55;;;;;;;13.98;9.82;;;3.20;24.20;;;;;;5115638;28;20104;-31
2023/01/24 12:26:27;;;;;;;15.15;10.80;;;3.20;1.00;;;;;;5081055;28;20394;-32
2023/01/24 12:29:21;;;;;;;17.35;10.85;;;3.20;99.90;;;;;;5116224;28;20039;-31
2023/01/24 12:32:07;;;;;;;20.27;10.60;;;3.10;1.00;;;;;;5097604;28;20056;-31
2023/01/24 12:35:10;;;;;;;15.80;10.13;;;3.10;99.90;;;;;;5116013;28;20043;-31
2023/01/24 12:37:48;;;;;;;14.98;10.75;;;3.10;99.90;;;;;;5115649;28;20079;-31
2023/01/24 12:40:14;;;;;;;17.33;12.18;;;3.10;99.90;;;;;;5098229;28;20108;-31
2023/01/24 12:42:57;;;;;;;15.52;11.43;;;3.10;99.90;;;;;;5115265;28;20122;-32
2023/01/24 12:46:02;;;;;;;16.30;11.48;;;3.20;1.00;;;;;;5097470;28;20043;-31
2023/01/24 12:48:46;;;;;;;16.35;10.95;;;3.20;1.00;;;;;;5115229;28;20043;-31
2023/01/24 12:51:34;;;;;;;15.23;11.18;;;3.30;1.00;;;;;;5097206;28;20047;-31
2023/01/24 12:54:19;;;;;;;16.60;11.73;;;3.20;6.90;;;;;;5097158;28;20047;-31
2023/01/24 12:57:10;;;;;;;17.48;11.63;;;3.20;1.00;;;;;;5115893;28;20128;-32
2023/01/24 12:59:35;;;;;;;20.02;11.75;;;3.20;1.00;;;;;;5114812;28;20048;-31
2023/01/24 13:02:19;;;;;;;16.42;11.90;;;3.20;40.50;;;;;;5097393;28;20474;-31
2023/01/24 13:05:20;;;;;;;15.70;11.05;;;3.20;1.00;;;;;;5114856;28;20051;-30
2023/01/24 13:08:27;;;;;;;17.67;11.02;;;3.20;1.00;;;;;;5114712;28;20104;-31
2023/01/24 13:11:01;;;;;;;16.48;11.07;;;3.20;50.00;;;;;;5069277;28;20055;-31
2023/01/24 13:13:33;;;;;;;18.88;12.45;;;3.10;1.00;;;;;;5121309;27;20035;-31
2023/01/24 13:16:19;;;;;;;17.17;11.80;;;3.20;1.00;;;;;;5135027;27;20545;-31
2023/01/24 13:18:50;;;;;;;19.38;12.10;;;3.20;83.70;;;;;;5135240;27;20099;-31
2023/01/24 13:21:50;;;;;;;19.88;13.15;;;3.20;80.60;;;;;;5135158;27;20095;-31
2023/01/24 13:24:32;;;;;;;19.52;12.80;;;3.10;99.90;;;;;;5134741;27;20488;-30
2023/01/24 13:27:01;;;;;;;17.80;12.63;;;3.20;44.40;;;;;;5135583;27;20053;-30
2023/01/24 13:30:02;;;;;;;16.58;12.10;;;3.10;31.70;;;;;;5134883;27;20112;-31
2023/01/24 13:32:30;;;;;;;15.30;10.90;;;3.10;1.00;;;;;;5134969;27;20043;-31
2023/01/24 13:34:58;;;;;;;16.48;11.13;;;3.20;99.90;;;;;;5116920;27;20047;-32
2023/01/24 13:37:34;;;;;;;16.60;11.82;;;3.20;1.00;;;;;;5134867;27;20045;-31
2023/01/24 13:40:15;;;;;;;15.90;12.07;;;3.20;1.00;;;;;;5116505;27;20051;-30
2023/01/24 13:42:42;;;;;;;17.92;12.20;;;3.20;99.90;;;;;;5134818;27;20050;-31